This is the latest recevied weather packets stored in our database for station/object KG5CK-1. If no packets are shown the sender has not sent any weather packets the latest 10 day(s).
| Time | Temp. | Humidity | Pressure | Rain* | Wind** | Luminosity | Snow |
|---|---|---|---|---|---|---|---|
| 1778019013 | 32.22° C | 56% | 999.4 hPa | 0 mm | 0.45 m/s, 68° | - | - |
| 1778019003 | 32.22° C | 56% | 999.6 hPa | 0 mm | 1.79 m/s, 303° | - | - |
| 1778018883 | 32.22° C | 56% | 999.6 hPa | 0 mm | 1.79 m/s, 303° | - | - |
| 1778018823 | 32.22° C | 56% | 999.6 hPa | 0 mm | 1.79 m/s, 303° | - | - |
| 1778018762 | 32.22° C | 56% | 999.6 hPa | 0 mm | 1.79 m/s, 303° | - | - |
| 1778018703 | 31.67° C | 57% | 999.5 hPa | 0 mm | 1.34 m/s, 251° | - | - |
| 1778018643 | 31.67° C | 57% | 999.5 hPa | 0 mm | 1.34 m/s, 251° | - | - |
| 1778018583 | 31.67° C | 57% | 999.5 hPa | 0 mm | 1.34 m/s, 251° | - | - |
| 1778018522 | 31.67° C | 57% | 999.5 hPa | 0 mm | 1.34 m/s, 251° | - | - |
| 1778018463 | 31.67° C | 57% | 999.5 hPa | 0 mm | 1.34 m/s, 251° | - | - |
| 1778018402 | 31.67° C | 58% | 999.8 hPa | 0 mm | 0.45 m/s, 39° | - | - |
| 1778018343 | 31.67° C | 58% | 999.8 hPa | 0 mm | 0.45 m/s, 39° | - | - |
| 1778018283 | 31.67° C | 58% | 999.8 hPa | 0 mm | 0.45 m/s, 39° | - | - |
| 1778018223 | 31.67° C | 58% | 999.8 hPa | 0 mm | 0.45 m/s, 39° | - | - |
| 1778018163 | 31.67° C | 58% | 999.8 hPa | 0 mm | 0.45 m/s, 39° | - | - |
| 1778018102 | 32.22° C | 57% | 999.8 hPa | 0 mm | 1.34 m/s, 217° | - | - |
| 1778018043 | 32.22° C | 57% | 999.8 hPa | 0 mm | 1.34 m/s, 217° | - | - |
| 1778017983 | 32.22° C | 57% | 999.8 hPa | 0 mm | 1.34 m/s, 217° | - | - |
| 1778017923 | 32.22° C | 57% | 999.8 hPa | 0 mm | 1.34 m/s, 217° | - | - |
| 1778017863 | 32.22° C | 57% | 999.8 hPa | 0 mm | 1.34 m/s, 217° | - | - |
| 1778017802 | 32.78° C | 56% | 999.5 hPa | 0 mm | 0.89 m/s, 170° | - | - |
| 1778017743 | 32.78° C | 56% | 999.5 hPa | 0 mm | 0.89 m/s, 170° | - | - |
| 1778017683 | 32.78° C | 56% | 999.5 hPa | 0 mm | 0.89 m/s, 170° | - | - |
| 1778017622 | 32.78° C | 56% | 999.5 hPa | 0 mm | 0.89 m/s, 170° | - | - |
| 1778017563 | 32.78° C | 56% | 999.5 hPa | 0 mm | 0.89 m/s, 170° | - | - |
* Rain latest hour (hover to see other rain measurements)
** Current wind speed in m/s (hover to see current wind gust speed)